sensor_id;sensor_type;location;lat;lon;timestamp;pressure;altitude;pressure_sealevel;temperature;humidity
61906;BME280;47863;55.766;37.672;2023-02-23T00:01:40;99813.38;;;-12.99;68.42
61906;BME280;47863;55.766;37.672;2023-02-23T00:04:07;99791.06;;;-13.07;68.34
61906;BME280;47863;55.766;37.672;2023-02-23T00:06:33;99814.22;;;-13.01;68.10
61906;BME280;47863;55.766;37.672;2023-02-23T00:09:01;99805.69;;;-13.05;68.38
61906;BME280;47863;55.766;37.672;2023-02-23T00:11:27;99799.69;;;-13.08;68.30
61906;BME280;47863;55.766;37.672;2023-02-23T00:13:53;99809.97;;;-13.04;68.65
61906;BME280;47863;55.766;37.672;2023-02-23T00:16:23;99786.88;;;-13.18;68.25
61906;BME280;47863;55.766;37.672;2023-02-23T00:18:50;99822.00;;;-13.04;68.30
61906;BME280;47863;55.766;37.672;2023-02-23T00:21:26;99817.75;;;-13.07;68.68
61906;BME280;47863;55.766;37.672;2023-02-23T00:24:01;99819.47;;;-13.09;68.50
61906;BME280;47863;55.766;37.672;2023-02-23T00:26:29;99810.09;;;-13.19;68.67
61906;BME280;47863;55.766;37.672;2023-02-23T00:28:57;99770.00;;;-13.49;68.52
61906;BME280;47863;55.766;37.672;2023-02-23T00:31:24;99835.84;;;-13.16;68.27
61906;BME280;47863;55.766;37.672;2023-02-23T00:33:55;99824.69;;;-13.18;68.54
61906;BME280;47863;55.766;37.672;2023-02-23T00:36:23;99833.41;;;-13.30;68.83
61906;BME280;47863;55.766;37.672;2023-02-23T00:38:52;99804.25;;;-13.38;68.42
61906;BME280;47863;55.766;37.672;2023-02-23T00:41:18;99830.69;;;-13.18;68.88
61906;BME280;47863;55.766;37.672;2023-02-23T00:43:48;99843.59;;;-13.16;68.63
61906;BME280;47863;55.766;37.672;2023-02-23T00:46:18;99791.44;;;-13.46;68.68
61906;BME280;47863;55.766;37.672;2023-02-23T00:48:48;99847.91;;;-13.18;69.22
61906;BME280;47863;55.766;37.672;2023-02-23T00:51:15;99830.84;;;-13.31;68.47
61906;BME280;47863;55.766;37.672;2023-02-23T00:53:42;99818.88;;;-13.40;68.78
61906;BME280;47863;55.766;37.672;2023-02-23T00:56:10;99855.69;;;-13.23;69.04
61906;BME280;47863;55.766;37.672;2023-02-23T00:58:37;99843.72;;;-13.30;68.84
61906;BME280;47863;55.766;37.672;2023-02-23T01:01:10;99853.09;;;-13.26;68.91
61906;BME280;47863;55.766;37.672;2023-02-23T01:03:38;99847.97;;;-13.29;68.72
61906;BME280;47863;55.766;37.672;2023-02-23T01:06:05;99852.31;;;-13.31;69.51
61906;BME280;47863;55.766;37.672;2023-02-23T01:08:33;99854.91;;;-13.35;69.35
61906;BME280;47863;55.766;37.672;2023-02-23T01:11:05;99854.91;;;-13.34;68.94
61906;BME280;47863;55.766;37.672;2023-02-23T01:13:30;99829.25;;;-13.51;70.08
61906;BME280;47863;55.766;37.672;2023-02-23T01:15:56;99860.91;;;-13.33;69.81
61906;BME280;47863;55.766;37.672;2023-02-23T01:18:21;99854.09;;;-13.39;69.29
61906;BME280;47863;55.766;37.672;2023-02-23T01:20:47;99819.03;;;-13.60;69.26
61906;BME280;47863;55.766;37.672;2023-02-23T01:23:14;99864.38;;;-13.39;69.37
61906;BME280;47863;55.766;37.672;2023-02-23T01:25:44;99869.53;;;-13.41;69.80
61906;BME280;47863;55.766;37.672;2023-02-23T01:28:10;99870.47;;;-13.46;69.42
61906;BME280;47863;55.766;37.672;2023-02-23T01:30:37;99858.47;;;-13.52;69.32
61906;BME280;47863;55.766;37.672;2023-02-23T01:33:03;99862.78;;;-13.54;69.88
61906;BME280;47863;55.766;37.672;2023-02-23T01:35:29;99867.06;;;-13.53;69.18
61906;BME280;47863;55.766;37.672;2023-02-23T01:37:54;99865.34;;;-13.55;69.54
61906;BME280;47863;55.766;37.672;2023-02-23T01:40:22;99855.09;;;-13.63;69.58
61906;BME280;47863;55.766;37.672;2023-02-23T01:43:15;99853.41;;;-13.67;70.02
61906;BME280;47863;55.766;37.672;2023-02-23T01:45:43;99826.03;;;-13.87;69.67
61906;BME280;47863;55.766;37.672;2023-02-23T01:48:15;99856.88;;;-13.71;69.07
61906;BME280;47863;55.766;37.672;2023-02-23T01:50:44;99863.72;;;-13.69;69.18
61906;BME280;47863;55.766;37.672;2023-02-23T01:53:11;99869.75;;;-13.70;69.76
61906;BME280;47863;55.766;37.672;2023-02-23T01:55:37;99836.38;;;-13.94;69.72
61906;BME280;47863;55.766;37.672;2023-02-23T01:58:10;99860.34;;;-13.82;69.01
61906;BME280;47863;55.766;37.672;2023-02-23T02:00:42;99880.91;;;-13.74;69.10
61906;BME280;47863;55.766;37.672;2023-02-23T02:03:13;99880.03;;;-13.73;69.35
61906;BME280;47863;55.766;37.672;2023-02-23T02:05:39;99883.47;;;-13.72;69.29
61906;BME280;47863;55.766;37.672;2023-02-23T02:08:06;99877.47;;;-13.74;69.71
61906;BME280;47863;55.766;37.672;2023-02-23T02:10:35;99888.66;;;-13.75;69.42
61906;BME280;47863;55.766;37.672;2023-02-23T02:13:06;99879.22;;;-13.78;69.11
61906;BME280;47863;55.766;37.672;2023-02-23T02:15:59;99891.22;;;-13.79;69.27
61906;BME280;47863;55.766;37.672;2023-02-23T02:19:06;99885.22;;;-13.81;70.07
61906;BME280;47863;55.766;37.672;2023-02-23T02:39:02;99905.88;;;-13.91;69.54
61906;BME280;47863;55.766;37.672;2023-02-23T02:41:51;99901.59;;;-13.94;69.95
61906;BME280;47863;55.766;37.672;2023-02-23T02:47:07;99899.84;;;-13.92;69.96
61906;BME280;47863;55.766;37.672;2023-02-23T02:52:33;99907.59;;;-13.92;69.62
61906;BME280;47863;55.766;37.672;2023-02-23T02:57:33;99899.91;;;-14.04;69.90
61906;BME280;47863;55.766;37.672;2023-02-23T03:00:00;99911.06;;;-14.01;69.88
61906;BME280;47863;55.766;37.672;2023-02-23T03:02:44;99917.94;;;-14.00;69.69
61906;BME280;47863;55.766;37.672;2023-02-23T03:05:40;99922.22;;;-13.95;69.59
61906;BME280;47863;55.766;37.672;2023-02-23T03:11:16;99871.66;;;-14.21;69.95
61906;BME280;47863;55.766;37.672;2023-02-23T03:26:22;99878.50;;;-14.20;69.97
61906;BME280;47863;55.766;37.672;2023-02-23T03:32:28;99911.06;;;-14.01;69.68
61906;BME280;47863;55.766;37.672;2023-02-23T03:35:21;99920.50;;;-14.01;69.85
61906;BME280;47863;55.766;37.672;2023-02-23T03:38:19;99919.69;;;-14.12;69.74
61906;BME280;47863;55.766;37.672;2023-02-23T03:41:07;99928.25;;;-14.07;70.02
61906;BME280;47863;55.766;37.672;2023-02-23T03:44:03;99932.53;;;-14.05;70.75
61906;BME280;47863;55.766;37.672;2023-02-23T03:46:50;99927.41;;;-14.09;70.04
61906;BME280;47863;55.766;37.672;2023-02-23T03:49:37;99938.56;;;-14.07;70.06
61906;BME280;47863;55.766;37.672;2023-02-23T03:52:47;99941.09;;;-14.06;70.68
61906;BME280;47863;55.766;37.672;2023-02-23T03:55:37;99941.97;;;-14.07;70.41
61906;BME280;47863;55.766;37.672;2023-02-23T03:58:29;99943.69;;;-14.07;69.77
61906;BME280;47863;55.766;37.672;2023-02-23T04:01:15;99941.97;;;-14.10;70.74
61906;BME280;47863;55.766;37.672;2023-02-23T04:04:02;99944.53;;;-14.10;70.41
61906;BME280;47863;55.766;37.672;2023-02-23T04:06:48;99924.00;;;-14.19;70.28
61906;BME280;47863;55.766;37.672;2023-02-23T04:09:33;99942.00;;;-14.13;70.38
61906;BME280;47863;55.766;37.672;2023-02-23T04:15:24;99948.88;;;-14.15;70.78
61906;BME280;47863;55.766;37.672;2023-02-23T04:17:52;99941.13;;;-14.17;70.44
61906;BME280;47863;55.766;37.672;2023-02-23T04:20:18;99916.28;;;-14.36;70.53
61906;BME280;47863;55.766;37.672;2023-02-23T04:22:44;99948.00;;;-14.19;70.44
61906;BME280;47863;55.766;37.672;2023-02-23T04:25:12;99942.84;;;-14.19;70.79
61906;BME280;47863;55.766;37.672;2023-02-23T04:27:38;99949.72;;;-14.14;71.17
61906;BME280;47863;55.766;37.672;2023-02-23T04:30:04;99929.16;;;-14.27;70.87
61906;BME280;47863;55.766;37.672;2023-02-23T04:32:30;99956.56;;;-14.12;70.53
61906;BME280;47863;55.766;37.672;2023-02-23T04:34:56;99944.56;;;-14.13;71.02
61906;BME280;47863;55.766;37.672;2023-02-23T04:37:22;99949.72;;;-14.18;70.98
61906;BME280;47863;55.766;37.672;2023-02-23T04:39:47;99926.59;;;-14.36;71.30
61906;BME280;47863;55.766;37.672;2023-02-23T04:42:15;99967.72;;;-14.10;70.54
61906;BME280;47863;55.766;37.672;2023-02-23T04:44:41;99972.00;;;-14.09;71.04
61906;BME280;47863;55.766;37.672;2023-02-23T04:47:06;99966.88;;;-14.07;71.06
61906;BME280;47863;55.766;37.672;2023-02-23T04:49:32;99966.00;;;-14.05;70.88
61906;BME280;47863;55.766;37.672;2023-02-23T04:51:57;99968.56;;;-14.03;70.84
61906;BME280;47863;55.766;37.672;2023-02-23T04:54:25;99910.31;;;-14.37;70.77
61906;BME280;47863;55.766;37.672;2023-02-23T04:56:51;99978.84;;;-13.97;71.33
61906;BME280;47863;55.766;37.672;2023-02-23T04:59:17;99947.13;;;-14.13;70.76
61906;BME280;47863;55.766;37.672;2023-02-23T05:01:42;99978.84;;;-13.89;71.03
61906;BME280;47863;55.766;37.672;2023-02-23T05:04:08;99972.81;;;-13.88;71.29
61906;BME280;47863;55.766;37.672;2023-02-23T05:06:33;99934.25;;;-14.08;71.17
61906;BME280;47863;55.766;37.672;2023-02-23T05:08:59;99984.81;;;-13.78;71.55
61906;BME280;47863;55.766;37.672;2023-02-23T05:11:24;99979.63;;;-13.69;71.08
61906;BME280;47863;55.766;37.672;2023-02-23T05:13:52;99944.44;;;-13.71;71.35
61906;BME280;47863;55.766;37.672;2023-02-23T05:16:18;99972.63;;;-13.39;71.58
61906;BME280;47863;55.766;37.672;2023-02-23T05:18:43;99931.47;;;-13.53;71.52
61906;BME280;47863;55.766;37.672;2023-02-23T05:21:09;99984.53;;;-13.18;70.91
61906;BME280;47863;55.766;37.672;2023-02-23T05:23:35;99986.22;;;-13.12;71.13
61906;BME280;47863;55.766;37.672;2023-02-23T05:26:03;99966.50;;;-13.24;70.85
61906;BME280;47863;55.766;37.672;2023-02-23T05:28:32;99989.59;;;-13.03;70.86
61906;BME280;47863;55.766;37.672;2023-02-23T05:30:59;99991.16;;;-12.77;71.32
61906;BME280;47863;55.766;37.672;2023-02-23T05:33:24;99995.03;;;-12.24;71.35
61906;BME280;47863;55.766;37.672;2023-02-23T05:35:50;99940.34;;;-11.84;71.42
61906;BME280;47863;55.766;37.672;2023-02-23T05:38:15;100001.25;;;-10.91;71.47
61906;BME280;47863;55.766;37.672;2023-02-23T05:40:41;99981.44;;;-10.38;70.83
61906;BME280;47863;55.766;37.672;2023-02-23T05:43:06;99994.59;;;-9.54;70.31
61906;BME280;47863;55.766;37.672;2023-02-23T05:45:32;99980.47;;;-8.99;70.15
61906;BME280;47863;55.766;37.672;2023-02-23T05:47:58;99990.81;;;-8.24;69.32
61906;BME280;47863;55.766;37.672;2023-02-23T05:50:24;99959.66;;;-7.91;69.41
61906;BME280;47863;55.766;37.672;2023-02-23T05:52:50;99985.28;;;-7.14;69.29
61906;BME280;47863;55.766;37.672;2023-02-23T05:55:15;99993.91;;;-6.56;69.02
61906;BME280;47863;55.766;37.672;2023-02-23T05:57:41;99984.84;;;-5.92;68.63
61906;BME280;47863;55.766;37.672;2023-02-23T06:00:09;99994.44;;;-5.43;68.16
61906;BME280;47863;55.766;37.672;2023-02-23T06:02:34;99983.09;;;-4.94;67.78
61906;BME280;47863;55.766;37.672;2023-02-23T06:05:00;99995.16;;;-4.46;66.85
61906;BME280;47863;55.766;37.672;2023-02-23T06:07:26;99968.13;;;-4.25;66.81
61906;BME280;47863;55.766;37.672;2023-02-23T06:09:52;99992.38;;;-3.79;66.38
61906;BME280;47863;55.766;37.672;2023-02-23T06:12:17;99977.94;;;-3.48;65.61
61906;BME280;47863;55.766;37.672;2023-02-23T06:14:43;99988.25;;;-3.43;65.45
61906;BME280;47863;55.766;37.672;2023-02-23T06:17:08;99997.16;;;-3.28;65.53
61906;BME280;47863;55.766;37.672;2023-02-23T06:19:34;99998.44;;;-3.37;64.96
61906;BME280;47863;55.766;37.672;2023-02-23T06:22:00;100003.63;;;-3.35;65.51
61906;BME280;47863;55.766;37.672;2023-02-23T06:24:25;100003.69;;;-3.37;64.68
61906;BME280;47863;55.766;37.672;2023-02-23T06:26:51;99999.00;;;-3.30;64.31
61906;BME280;47863;55.766;37.672;2023-02-23T06:29:16;100003.56;;;-3.15;64.51
61906;BME280;47863;55.766;37.672;2023-02-23T06:31:42;100002.38;;;-2.89;64.87
61906;BME280;47863;55.766;37.672;2023-02-23T06:34:08;99999.47;;;-2.64;64.74
61906;BME280;47863;55.766;37.672;2023-02-23T06:36:35;100002.16;;;-2.46;64.00
61906;BME280;47863;55.766;37.672;2023-02-23T06:39:01;99982.66;;;-2.41;63.04
61906;BME280;47863;55.766;37.672;2023-02-23T06:41:27;100007.84;;;-2.19;61.97
61906;BME280;47863;55.766;37.672;2023-02-23T06:43:52;99978.00;;;-2.35;61.18
61906;BME280;47863;55.766;37.672;2023-02-23T06:46:18;99990.94;;;-1.96;60.79
61906;BME280;47863;55.766;37.672;2023-02-23T06:48:44;99988.03;;;-1.39;60.67
61906;BME280;47863;55.766;37.672;2023-02-23T06:51:09;99969.16;;;-0.81;59.83
61906;BME280;47863;55.766;37.672;2023-02-23T06:53:35;100008.16;;;0.21;60.61
61906;BME280;47863;55.766;37.672;2023-02-23T06:56:02;100008.72;;;0.85;59.28
61906;BME280;47863;55.766;37.672;2023-02-23T06:58:28;99987.59;;;1.14;59.74
61906;BME280;47863;55.766;37.672;2023-02-23T07:00:55;100009.78;;;1.53;59.58
61906;BME280;47863;55.766;37.672;2023-02-23T07:03:22;100017.72;;;1.80;59.17
61906;BME280;47863;55.766;37.672;2023-02-23T07:05:48;100022.53;;;2.01;58.67
61906;BME280;47863;55.766;37.672;2023-02-23T07:08:15;100007.25;;;2.18;58.36
61906;BME280;47863;55.766;37.672;2023-02-23T07:10:42;99994.94;;;2.45;57.24
61906;BME280;47863;55.766;37.672;2023-02-23T07:13:08;99989.84;;;2.54;57.30
61906;BME280;47863;55.766;37.672;2023-02-23T07:15:35;100020.84;;;2.52;57.63
61906;BME280;47863;55.766;37.672;2023-02-23T07:18:01;100026.41;;;2.22;58.58
61906;BME280;47863;55.766;37.672;2023-02-23T07:20:27;100024.84;;;1.92;58.17
61906;BME280;47863;55.766;37.672;2023-02-23T07:22:52;100031.22;;;1.75;56.52
61906;BME280;47863;55.766;37.672;2023-02-23T07:25:19;100027.81;;;1.46;56.98
61906;BME280;47863;55.766;37.672;2023-02-23T07:27:45;100035.75;;;1.17;57.24
61906;BME280;47863;55.766;37.672;2023-02-23T07:30:11;100038.22;;;1.21;58.06
61906;BME280;47863;55.766;37.672;2023-02-23T07:32:37;100039.91;;;1.22;56.13
61906;BME280;47863;55.766;37.672;2023-02-23T07:35:04;100003.31;;;1.30;56.95
61906;BME280;47863;55.766;37.672;2023-02-23T07:37:30;100041.75;;;1.90;55.85
61906;BME280;47863;55.766;37.672;2023-02-23T07:39:56;100022.94;;;2.22;55.60
61906;BME280;47863;55.766;37.672;2023-02-23T07:42:21;100049.66;;;2.70;55.41
61906;BME280;47863;55.766;37.672;2023-02-23T07:44:47;100020.22;;;3.13;55.33
61906;BME280;47863;55.766;37.672;2023-02-23T07:47:12;100045.59;;;4.02;54.90
61906;BME280;47863;55.766;37.672;2023-02-23T07:49:38;100034.78;;;4.87;53.72
61906;BME280;47863;55.766;37.672;2023-02-23T07:52:04;100033.75;;;5.90;53.40
61906;BME280;47863;55.766;37.672;2023-02-23T07:54:29;100034.72;;;6.95;52.22
61906;BME280;47863;55.766;37.672;2023-02-23T07:56:55;100022.72;;;7.92;51.83
61906;BME280;47863;55.766;37.672;2023-02-23T07:59:20;100042.53;;;8.77;51.27
61906;BME280;47863;55.766;37.672;2023-02-23T08:01:46;99969.78;;;9.03;50.60
61906;BME280;47863;55.766;37.672;2023-02-23T08:04:12;100038.91;;;9.99;50.80
61906;BME280;47863;55.766;37.672;2023-02-23T08:06:37;100030.94;;;10.35;49.82
61906;BME280;47863;55.766;37.672;2023-02-23T08:09:03;100026.19;;;10.64;50.27
61906;BME280;47863;55.766;37.672;2023-02-23T08:11:29;100012.50;;;10.76;49.03
61906;BME280;47863;55.766;37.672;2023-02-23T08:13:55;100036.13;;;10.98;50.24
61906;BME280;47863;55.766;37.672;2023-02-23T08:16:28;100031.31;;;11.36;46.90
61906;BME280;47863;55.766;37.672;2023-02-23T08:19:00;100030.31;;;11.88;48.21
61906;BME280;47863;55.766;37.672;2023-02-23T08:21:27;100016.16;;;12.28;47.51
61906;BME280;47863;55.766;37.672;2023-02-23T08:23:54;100019.34;;;12.89;47.89
61906;BME280;47863;55.766;37.672;2023-02-23T08:26:20;100020.97;;;13.07;47.22
61906;BME280;47863;55.766;37.672;2023-02-23T08:28:46;100030.50;;;13.26;46.66
61906;BME280;47863;55.766;37.672;2023-02-23T08:31:13;100039.78;;;13.32;45.52
61906;BME280;47863;55.766;37.672;2023-02-23T08:33:38;100007.47;;;13.23;46.79
61906;BME280;47863;55.766;37.672;2023-02-23T08:36:08;100026.09;;;13.49;46.06
61906;BME280;47863;55.766;37.672;2023-02-23T08:38:33;100038.00;;;13.55;46.34
61906;BME280;47863;55.766;37.672;2023-02-23T08:41:03;100016.16;;;13.50;45.61
61906;BME280;47863;55.766;37.672;2023-02-23T08:43:29;100040.94;;;13.77;45.12
61906;BME280;47863;55.766;37.672;2023-02-23T08:45:55;100036.56;;;13.76;44.76
61906;BME280;47863;55.766;37.672;2023-02-23T08:48:20;100034.63;;;13.61;44.16
61906;BME280;47863;55.766;37.672;2023-02-23T08:50:47;100041.28;;;13.74;45.09
61906;BME280;47863;55.766;37.672;2023-02-23T08:53:17;100043.69;;;13.68;41.40
61906;BME280;47863;55.766;37.672;2023-02-23T08:55:43;100008.03;;;13.89;44.02
61906;BME280;47863;55.766;37.672;2023-02-23T08:58:10;100044.34;;;14.56;42.78
61906;BME280;47863;55.766;37.672;2023-02-23T09:00:36;100035.31;;;15.02;43.42
61906;BME280;47863;55.766;37.672;2023-02-23T09:03:04;100039.81;;;15.39;42.44
61906;BME280;47863;55.766;37.672;2023-02-23T09:05:30;100011.84;;;15.62;42.13
61906;BME280;47863;55.766;37.672;2023-02-23T09:07:56;100023.53;;;15.99;41.13
61906;BME280;47863;55.766;37.672;2023-02-23T09:10:22;100035.94;;;16.30;39.67
61906;BME280;47863;55.766;37.672;2023-02-23T09:12:53;100022.47;;;16.58;39.26
61906;BME280;47863;55.766;37.672;2023-02-23T09:15:20;100037.84;;;17.00;39.19
61906;BME280;47863;55.766;37.672;2023-02-23T09:17:46;100019.66;;;17.22;38.84
61906;BME280;47863;55.766;37.672;2023-02-23T09:20:13;100011.00;;;17.34;37.28
61906;BME280;47863;55.766;37.672;2023-02-23T09:22:43;100036.25;;;17.48;36.61
61906;BME280;47863;55.766;37.672;2023-02-23T09:25:17;100036.34;;;17.68;34.66
61906;BME280;47863;55.766;37.672;2023-02-23T09:27:55;100039.56;;;17.84;36.37
61906;BME280;47863;55.766;37.672;2023-02-23T09:30:22;100029.59;;;17.98;36.42
61906;BME280;47863;55.766;37.672;2023-02-23T09:32:52;100031.53;;;18.11;34.75
61906;BME280;47863;55.766;37.672;2023-02-23T09:35:20;100020.13;;;17.81;36.56
61906;BME280;47863;55.766;37.672;2023-02-23T09:37:48;100027.19;;;17.69;37.72
61906;BME280;47863;55.766;37.672;2023-02-23T09:40:17;100011.69;;;16.86;36.83
61906;BME280;47863;55.766;37.672;2023-02-23T09:43:17;100016.63;;;15.45;38.86
61906;BME280;47863;55.766;37.672;2023-02-23T09:45:50;100024.56;;;14.64;38.86
61906;BME280;47863;55.766;37.672;2023-02-23T09:48:25;100026.31;;;14.02;40.04
61906;BME280;47863;55.766;37.672;2023-02-23T09:50:56;100027.56;;;12.88;39.33
61906;BME280;47863;55.766;37.672;2023-02-23T09:53:32;100035.13;;;12.60;40.15
61906;BME280;47863;55.766;37.672;2023-02-23T09:56:06;100029.91;;;12.91;39.59
61906;BME280;47863;55.766;37.672;2023-02-23T09:58:33;100030.84;;;13.39;39.04
61906;BME280;47863;55.766;37.672;2023-02-23T10:01:13;100022.16;;;13.92;38.48
61906;BME280;47863;55.766;37.672;2023-02-23T10:06:25;100001.84;;;15.41;36.10
61906;BME280;47863;55.766;37.672;2023-02-23T10:11:51;100009.69;;;16.45;33.07
61906;BME280;47863;55.766;37.672;2023-02-23T10:14:42;100018.19;;;16.92;33.22
61906;BME280;47863;55.766;37.672;2023-02-23T10:17:41;100012.97;;;17.60;32.83
61906;BME280;47863;55.766;37.672;2023-02-23T10:20:34;100012.75;;;18.16;29.19
61906;BME280;47863;55.766;37.672;2023-02-23T10:23:10;99990.28;;;18.36;32.08
61906;BME280;47863;55.766;37.672;2023-02-23T10:25:42;100010.97;;;18.57;31.58
61906;BME280;47863;55.766;37.672;2023-02-23T10:28:20;99993.22;;;18.74;31.24
61906;BME280;47863;55.766;37.672;2023-02-23T10:30:49;100007.22;;;18.91;31.73
61906;BME280;47863;55.766;37.672;2023-02-23T10:33:24;99999.25;;;19.10;31.06
61906;BME280;47863;55.766;37.672;2023-02-23T10:35:59;99999.44;;;19.21;32.25
61906;BME280;47863;55.766;37.672;2023-02-23T10:38:26;100000.06;;;19.24;31.99
61906;BME280;47863;55.766;37.672;2023-02-23T10:40:55;99977.91;;;19.27;28.53
61906;BME280;47863;55.766;37.672;2023-02-23T10:43:21;99980.00;;;19.25;32.06
61906;BME280;47863;55.766;37.672;2023-02-23T10:45:51;100003.78;;;19.29;31.61
61906;BME280;47863;55.766;37.672;2023-02-23T10:48:21;99990.06;;;19.17;31.11
61906;BME280;47863;55.766;37.672;2023-02-23T10:50:51;99997.97;;;19.26;31.58
61906;BME280;47863;55.766;37.672;2023-02-23T10:53:26;99997.53;;;19.29;31.62
61906;BME280;47863;55.766;37.672;2023-02-23T10:56:16;100002.38;;;19.20;30.54
61906;BME280;47863;55.766;37.672;2023-02-23T11:01:14;100000.31;;;18.75;30.19
61906;BME280;47863;55.766;37.672;2023-02-23T11:03:47;99992.78;;;18.44;30.63
61906;BME280;47863;55.766;37.672;2023-02-23T11:06:27;99978.56;;;18.09;30.51
61906;BME280;47863;55.766;37.672;2023-02-23T11:08:53;99991.75;;;17.63;29.25
61906;BME280;47863;55.766;37.672;2023-02-23T11:11:27;99984.81;;;17.48;28.30
61906;BME280;47863;55.766;37.672;2023-02-23T11:13:56;99993.34;;;17.51;29.55
61906;BME280;47863;55.766;37.672;2023-02-23T11:16:24;99982.56;;;17.64;30.11
61906;BME280;47863;55.766;37.672;2023-02-23T11:21:33;99982.22;;;17.26;29.87
61906;BME280;47863;55.766;37.672;2023-02-23T11:24:24;99987.91;;;17.10;28.14
61906;BME280;47863;55.766;37.672;2023-02-23T11:26:53;99978.72;;;17.04;29.75
61906;BME280;47863;55.766;37.672;2023-02-23T11:29:38;99988.78;;;17.10;29.63
61906;BME280;47863;55.766;37.672;2023-02-23T11:32:28;99994.31;;;17.02;28.67
61906;BME280;47863;55.766;37.672;2023-02-23T11:37:36;99965.34;;;16.39;30.45
61906;BME280;47863;55.766;37.672;2023-02-23T11:40:18;99994.66;;;16.42;28.21
61906;BME280;47863;55.766;37.672;2023-02-23T11:42:56;99992.75;;;16.36;30.70
61906;BME280;47863;55.766;37.672;2023-02-23T11:45:24;99980.66;;;16.11;30.51
61906;BME280;47863;55.766;37.672;2023-02-23T11:47:55;99976.59;;;16.00;30.39
61906;BME280;47863;55.766;37.672;2023-02-23T11:55:38;99968.22;;;15.95;30.59
61906;BME280;47863;55.766;37.672;2023-02-23T12:00:54;99964.47;;;15.59;26.38
61906;BME280;47863;55.766;37.672;2023-02-23T12:03:21;99959.97;;;15.15;29.72
61906;BME280;47863;55.766;37.672;2023-02-23T12:05:53;99961.72;;;14.78;29.96
61906;BME280;47863;55.766;37.672;2023-02-23T12:08:36;99972.50;;;14.40;29.64
61906;BME280;47863;55.766;37.672;2023-02-23T12:11:06;99968.19;;;14.31;29.56
61906;BME280;47863;55.766;37.672;2023-02-23T12:13:44;99952.16;;;14.15;29.94
61906;BME280;47863;55.766;37.672;2023-02-23T12:16:18;99967.28;;;14.16;30.16
61906;BME280;47863;55.766;37.672;2023-02-23T12:19:24;99977.28;;;13.84;29.93
61906;BME280;47863;55.766;37.672;2023-02-23T12:21:57;99969.25;;;13.44;29.68
61906;BME280;47863;55.766;37.672;2023-02-23T12:24:40;99968.03;;;13.07;27.85
61906;BME280;47863;55.766;37.672;2023-02-23T12:33:03;99977.00;;;12.75;27.93
61906;BME280;47863;55.766;37.672;2023-02-23T12:38:25;99942.84;;;11.61;30.24
61906;BME280;47863;55.766;37.672;2023-02-23T12:41:08;99974.81;;;11.38;29.52
61906;BME280;47863;55.766;37.672;2023-02-23T12:43:45;99956.78;;;10.79;30.15
61906;BME280;47863;55.766;37.672;2023-02-23T12:46:17;99952.69;;;10.41;30.45
61906;BME280;47863;55.766;37.672;2023-02-23T12:51:49;99980.53;;;10.30;30.66
61906;BME280;47863;55.766;37.672;2023-02-23T12:54:16;99942.84;;;9.87;30.68
61906;BME280;47863;55.766;37.672;2023-02-23T12:57:17;99977.19;;;9.64;29.96
61906;BME280;47863;55.766;37.672;2023-02-23T12:59:57;99978.78;;;9.29;30.44
61906;BME280;47863;55.766;37.672;2023-02-23T13:05:18;99991.47;;;9.27;31.29
61906;BME280;47863;55.766;37.672;2023-02-23T13:08:42;99984.91;;;9.12;31.36
61906;BME280;47863;55.766;37.672;2023-02-23T13:21:46;99991.13;;;8.17;31.80
61906;BME280;47863;55.766;37.672;2023-02-23T13:24:22;99929.63;;;7.60;31.25
61906;BME280;47863;55.766;37.672;2023-02-23T13:29:45;99983.06;;;7.68;31.60
61906;BME280;47863;55.766;37.672;2023-02-23T13:32:18;99956.66;;;7.35;32.58
61906;BME280;47863;55.766;37.672;2023-02-23T13:35:06;99976.34;;;7.13;32.71
61906;BME280;47863;55.766;37.672;2023-02-23T13:37:40;99995.25;;;6.80;32.88
61906;BME280;47863;55.766;37.672;2023-02-23T13:40:14;99991.88;;;6.35;33.56
61906;BME280;47863;55.766;37.672;2023-02-23T13:48:51;99986.16;;;4.75;33.11
61906;BME280;47863;55.766;37.672;2023-02-23T13:51:36;100000.66;;;4.01;34.39
61906;BME280;47863;55.766;37.672;2023-02-23T13:56:44;99991.09;;;3.13;34.44
61906;BME280;47863;55.766;37.672;2023-02-23T13:59:20;99991.91;;;2.76;35.41
61906;BME280;47863;55.766;37.672;2023-02-23T14:01:49;99988.75;;;2.18;35.32
61906;BME280;47863;55.766;37.672;2023-02-23T14:04:22;99988.91;;;1.63;35.74
61906;BME280;47863;55.766;37.672;2023-02-23T14:09:27;99991.28;;;0.54;36.92
61906;BME280;47863;55.766;37.672;2023-02-23T14:12:15;99986.13;;;-0.08;37.15
61906;BME280;47863;55.766;37.672;2023-02-23T14:14:45;99979.56;;;-0.79;37.73
61906;BME280;47863;55.766;37.672;2023-02-23T14:19:58;99998.28;;;-1.68;38.28
61906;BME280;47863;55.766;37.672;2023-02-23T14:22:29;99994.72;;;-2.19;38.75
61906;BME280;47863;55.766;37.672;2023-02-23T14:28:02;99983.59;;;-2.99;39.04
61906;BME280;47863;55.766;37.672;2023-02-23T14:30:49;99982.31;;;-3.28;38.82
61906;BME280;47863;55.766;37.672;2023-02-23T14:41:53;99980.47;;;-3.86;39.31
61906;BME280;47863;55.766;37.672;2023-02-23T14:44:45;99969.78;;;-4.02;38.96
61906;BME280;47863;55.766;37.672;2023-02-23T14:47:18;99988.22;;;-4.25;38.84
61906;BME280;47863;55.766;37.672;2023-02-23T14:49:52;99972.47;;;-4.46;39.67
61906;BME280;47863;55.766;37.672;2023-02-23T14:52:26;99969.69;;;-4.63;39.41
61906;BME280;47863;55.766;37.672;2023-02-23T14:57:39;99946.13;;;-5.07;39.44
61906;BME280;47863;55.766;37.672;2023-02-23T15:05:35;99920.16;;;-5.34;39.42
61906;BME280;47863;55.766;37.672;2023-02-23T15:08:07;99912.53;;;-5.40;39.51
61906;BME280;47863;55.766;37.672;2023-02-23T15:10:38;99963.22;;;-5.22;40.37
61906;BME280;47863;55.766;37.672;2023-02-23T15:13:34;99931.94;;;-5.47;40.61
61906;BME280;47863;55.766;37.672;2023-02-23T15:16:26;99967.88;;;-5.54;41.04
61906;BME280;47863;55.766;37.672;2023-02-23T15:18:52;99927.09;;;-5.82;40.79